Grove City, OH

11:15 PM EDT on June 30, 2015 (GMT -0400)
Hunting Ridge | | Change Station
CLOSE
Current Station
Personal Weather Station
Location: Columbus, OH
Elevation: 856 ft
Nearby Weather Stations

Elev 856 ft 39.92 °N, 83.11 °W | Updated 2 seconds ago

Scattered Clouds
Scattered Clouds
64.8 °F
Feels Like 64.8 °F
N
2.2
Wind Variable Wind from SW
Gusts 3.8 mph

Today
High -- | Low -- °F
--% Chance of Precip.
Yesterday
High -- | Low -- °F
Precip. -- in
6:07 AM 9:04 PM
Waxing Gibbous, 99% visible
Pressure 29.87 in
Visibility 7.0 miles
Clouds Scattered Clouds 3500 ft
Scattered Clouds 5000 ft
Scattered Clouds 7500 ft
Dew Point 62 °F
Humidity 90%
Rainfall in
Snow Depth Not available.
UV 0 out of 12
Pollen 1.00 out of 12
Air Quality Not available.
Flu Activity Sporadic
METAR KTZR 010255Z AUTO 21005KT 7SM SCT035 SCT050 SCT075 18/17 A2987 RMK AO2 T01760171

More Conditions Fewer Conditions

Pressure 29.87 in
Visibility 7.0 miles
Clouds Scattered Clouds 3500 ft
Scattered Clouds 5000 ft
Scattered Clouds 7500 ft
Dew Point 62 °F
Humidity 90%
Rainfall in
Snow Depth Not available.
UV 0 out of 12
Pollen 1.00 out of 12
Air Quality Not available.
Flu Activity Sporadic
METAR KTZR 010255Z AUTO 21005KT 7SM SCT035 SCT050 SCT075 18/17 A2987 RMK AO2 T01760171

More Conditions Fewer Conditions

10-Day Weather Forecast

×

Almanac

Astronomy

Jun. 30, 2015 Rise Set
Actual Time
Civil Twilight
Nautical Twilight
Astronomical Twilight
Moon
Length of Visible Light
Length of Day
Tomorrow will be .
, % of the Moon is Illuminated

Today's Extremes

State Highs State Lows

Community

WunderPhotos

Upload Photos

1,834,122 photos uploaded!

WunderBlogs® & News

Nearby

Air Quality

  Air Quality AQ Index Pollutant
Not available.

Snow Depth

Station Depth Elevation

Earthquake Activity

City Distance Mag. Time & Date
Minimum magnitude displayed is 2.5.

Coastal Water Temperatures

Place Temperature

Stations

Nearby Weather Stations

Station Location Temp. Windchill Dew Point Humidity Wind Precip. Elev Updated Type